Aeroporto :
LOGIN :

Iscrizione | Disclaimer

   EN    FR    IT 

 










Sommario :    VFR   VFR Marginale   IFR   IFR Intensivo   IFR Molto Intensivo
Visibilità : 
Base nubi : 
>= 8 km
>= 3000ft
5 / 8 km
1000 / 3000 ft
1500m / 5 km
500 / 1000 ft
800 / 1500m
200 / 500 ft
< 800m
< 200 ft
Simboli :   Temporali  Nebbia  Neve Forte  Precipitazioni Forti  Vento > 20 kt
SIGMETs :   Varie  Temporali  Ghiacco  Turbolenza  Onda orograficha  Ceneri Vulcaniche






- Altitudine del aeroporto : 144 ft
- Codice IATA : PGF


LFMP - Perpignan

ULTIMO METAR :
  • 151730Z AUTO 00000KT 9999 FEW021 OVC029 12/10 Q1011 TEMPO BKN010

METARs OBSOLETI :
  • 151700Z AUTO 04003KT 9999 BKN025 OVC030 13/11 Q1011 TEMPO BKN010
  • 151630Z AUTO VRB03KT 9999 FEW010 BKN019 OVC026 13/11 Q1011 TEMPO BKN010
  • 151600Z AUTO 03004KT 9999 BKN010 OVC017 13/11 Q1011 NOSIG
  • 151530Z AUTO 10004KT 9999 BKN012 OVC018 13/11 Q1011 NOSIG
  • 151500Z AUTO 08004KT 040V110 9999 BKN009 OVC013 13/11 Q1011 TEMPO BKN010

TAF TAF LFMP
Valido dal 15 a 15 ore il 16 a 15 ore UTC


151400Z 1515/1615 VRB05KT CAVOK
TEMPO 1515/1605 BKN010
PROB30
TEMPO 1602/1605 0600 FG VV///
BECMG 1605/1608 14015KT
TEMPO 1608/1615 14020G30KT
ATIS : +33 4 68 63 75 12



MetMap, La meteo Aeronautica in un colpo d'occhio ! - Copyright ORBIFLY Dicembre 2007 - Disclaimer

ORBIFLY MET'MAP TEAM :

Programmazione e sviluppo : Alexandra Zaïnal
Concezione : Baudouin d'Aumeries
Aiuto per la programmazione : Marc-Olivier Méhu
Supporto tecnico e logistico : Manuel Goepfert
Aiuto per la traduzione : Arnaldo La Scala

Contatto : metmap@orbifly.com




FONTI E CREDITI :

   NOAA